Time;durP1;ratioP1;P1;durP2;ratioP2;P2;SDS_P1;SDS_P2;PMS_P1;PMS_P2;Temp;Humidity;BMP_temperature;BMP_pressure;BME280_temperature;BME280_humidity;BME280_pressure;Samples;Min_cycle;Max_cycle;Signal;HPM_P1;HPM_P2
2021/06/06 00:01:09;;;;;;;2.25;2.05;;;16.40;81.10;;;;;;4998256;28;20027;-65
2021/06/06 00:03:40;;;;;;;2.10;1.95;;;16.40;81.30;;;;;;4997650;28;20100;-64
2021/06/06 00:06:13;;;;;;;1.98;1.88;;;16.40;81.10;;;;;;4997642;28;20555;-64
2021/06/06 00:08:40;;;;;;;2.67;1.75;;;16.50;81.20;;;;;;4996864;28;20157;-65
2021/06/06 00:11:16;;;;;;;1.95;1.80;;;16.50;81.20;;;;;;4997572;28;20049;-65
2021/06/06 00:13:43;;;;;;;2.13;2.03;;;16.50;81.40;;;;;;4997239;28;20524;-65
2021/06/06 00:16:12;;;;;;;1.95;1.85;;;16.50;81.30;;;;;;4999978;28;20035;-65
2021/06/06 00:18:39;;;;;;;2.08;1.98;;;16.50;81.20;;;;;;4999080;28;20035;-65
2021/06/06 00:21:05;;;;;;;2.95;2.10;;;16.50;81.20;;;;;;5001315;28;20042;-65
2021/06/06 00:23:32;;;;;;;2.42;1.90;;;16.40;81.30;;;;;;5000987;28;20109;-65
2021/06/06 00:25:59;;;;;;;2.17;2.00;;;16.40;81.30;;;;;;5000214;28;20030;-65
2021/06/06 00:28:25;;;;;;;1.98;1.88;;;16.50;81.50;;;;;;4997788;28;20038;-65
2021/06/06 00:30:51;;;;;;;2.00;1.90;;;16.50;81.40;;;;;;5000081;28;20505;-65
2021/06/06 00:33:17;;;;;;;2.35;2.15;;;16.50;81.30;;;;;;4999665;28;21077;-65
2021/06/06 00:35:42;;;;;;;2.35;2.15;;;16.50;81.30;;;;;;5000906;28;20045;-64
2021/06/06 00:38:08;;;;;;;32.17;2.15;;;16.40;81.40;;;;;;4999548;28;20044;-65
2021/06/06 00:40:37;;;;;;;1.85;1.75;;;16.40;81.50;;;;;;4998011;28;20042;-65
2021/06/06 00:43:06;;;;;;;1.92;1.83;;;16.40;81.60;;;;;;5000447;28;20034;-65
2021/06/06 00:45:32;;;;;;;2.00;1.90;;;16.40;81.70;;;;;;5000348;28;20041;-65
2021/06/06 00:47:59;;;;;;;2.13;2.03;;;16.40;81.70;;;;;;4999641;28;20041;-65
2021/06/06 00:50:34;;;;;;;2.30;2.10;;;16.40;81.90;;;;;;5000220;28;20069;-65
2021/06/06 00:53:04;;;;;;;2.67;2.45;;;16.40;82.10;;;;;;4998342;28;20030;-65
2021/06/06 00:55:32;;;;;;;2.58;2.38;;;16.40;82.00;;;;;;5000859;28;20062;-65
2021/06/06 00:57:59;;;;;;;2.38;2.17;;;16.40;82.00;;;;;;5002900;28;20045;-65
2021/06/06 01:00:40;;;;;;;2.70;2.50;;;16.40;82.00;;;;;;5002846;28;20038;-65
2021/06/06 01:03:07;;;;;;;2.70;2.50;;;16.40;82.10;;;;;;5001742;28;20050;-65
2021/06/06 01:05:46;;;;;;;2.80;2.60;;;16.40;82.00;;;;;;4999875;28;20615;-65
2021/06/06 01:08:16;;;;;;;2.58;2.38;;;16.40;82.50;;;;;;4997554;28;20042;-65
2021/06/06 01:10:43;;;;;;;2.85;2.65;;;16.40;82.00;;;;;;4997718;28;20051;-65
2021/06/06 01:13:27;;;;;;;2.75;2.55;;;16.30;81.90;;;;;;5000623;28;20065;-65
2021/06/06 01:16:17;;;;;;;2.80;2.60;;;16.30;82.20;;;;;;4998611;28;20046;-65
2021/06/06 01:18:50;;;;;;;2.80;2.60;;;16.40;82.90;;;;;;4999984;28;20044;-65
2021/06/06 01:21:30;;;;;;;2.65;2.45;;;16.30;83.10;;;;;;4998840;28;20033;-64
2021/06/06 01:24:10;;;;;;;2.40;2.20;;;16.40;82.60;;;;;;4999715;28;20053;-65
2021/06/06 01:26:44;;;;;;;2.58;2.33;;;16.30;82.60;;;;;;4997354;28;20038;-64
2021/06/06 01:29:26;;;;;;;2.08;1.98;;;16.30;82.40;;;;;;4997874;28;20034;-66
2021/06/06 01:31:57;;;;;;;1.80;1.70;;;16.40;82.80;;;;;;4999584;28;20095;-65
2021/06/06 01:34:25;;;;;;;1.75;1.65;;;16.40;82.30;;;;;;4998370;28;20033;-65
2021/06/06 01:37:00;;;;;;;1.67;1.58;;;16.40;82.20;;;;;;4999902;28;20034;-65
2021/06/06 01:39:49;;;;;;;1.40;1.30;;;16.40;82.50;;;;;;4999063;28;20026;-64
2021/06/06 01:42:37;;;;;;;1.30;1.20;;;16.40;82.30;;;;;;4999074;28;20023;-65
2021/06/06 01:45:14;;;;;;;1.20;1.10;;;16.40;82.70;;;;;;4997618;28;20081;-64
2021/06/06 01:47:43;;;;;;;1.17;1.08;;;16.40;82.70;;;;;;4999238;28;20030;-65
2021/06/06 01:50:15;;;;;;;1.08;1.08;;;16.40;82.40;;;;;;4998265;28;20030;-65
2021/06/06 01:52:42;;;;;;;1.85;0.90;;;16.40;82.50;;;;;;4998880;28;20030;-65
2021/06/06 01:55:11;;;;;;;1.10;0.95;;;16.40;82.20;;;;;;4999234;28;20457;-65
2021/06/06 01:57:39;;;;;;;0.88;0.88;;;16.40;82.40;;;;;;4997615;28;20933;-64
2021/06/06 02:00:09;;;;;;;1.60;0.70;;;16.40;82.40;;;;;;4999226;28;20544;-65
2021/06/06 02:02:36;;;;;;;2.88;0.80;;;16.40;82.50;;;;;;4998202;28;20049;-65
2021/06/06 02:05:08;;;;;;;0.60;0.60;;;16.40;82.40;;;;;;5000684;28;20847;-65
2021/06/06 02:07:36;;;;;;;0.85;0.82;;;16.50;82.50;;;;;;4999027;28;20452;-65
2021/06/06 02:10:18;;;;;;;0.70;0.70;;;16.50;82.50;;;;;;4997673;28;20511;-65
2021/06/06 02:12:51;;;;;;;0.60;0.60;;;16.50;82.60;;;;;;4994909;28;20505;-65
2021/06/06 02:15:28;;;;;;;0.55;0.55;;;16.50;82.40;;;;;;4997692;28;20403;-64
2021/06/06 02:17:57;;;;;;;0.70;0.70;;;16.50;82.50;;;;;;4998841;28;20041;-66
2021/06/06 02:20:26;;;;;;;1.00;1.00;;;16.50;82.20;;;;;;4998955;28;20042;-65
2021/06/06 02:22:54;;;;;;;0.98;0.98;;;16.50;82.20;;;;;;4998795;28;20358;-65
2021/06/06 02:25:21;;;;;;;1.08;1.08;;;16.50;82.20;;;;;;4997612;28;20112;-64
2021/06/06 02:28:13;;;;;;;2.22;1.40;;;16.50;82.10;;;;;;4999165;28;20045;-65
2021/06/06 02:30:49;;;;;;;1.70;1.60;;;16.40;82.40;;;;;;4997044;28;20034;-65
2021/06/06 02:33:44;;;;;;;3.03;1.83;;;16.40;83.50;;;;;;4997125;28;20444;-65
2021/06/06 02:36:13;;;;;;;2.08;1.98;;;16.40;83.10;;;;;;4998137;28;20044;-65
2021/06/06 02:38:47;;;;;;;2.60;2.40;;;16.40;82.40;;;;;;4996534;28;20382;-66
2021/06/06 02:41:22;;;;;;;2.65;2.45;;;16.40;82.90;;;;;;4998194;28;20026;-65
2021/06/06 02:43:58;;;;;;;2.78;2.50;;;16.40;83.10;;;;;;4996694;28;20053;-65
2021/06/06 02:46:25;;;;;;;2.67;2.50;;;16.40;82.60;;;;;;5004005;28;20023;-65
2021/06/06 02:48:57;;;;;;;2.97;2.78;;;16.40;82.70;;;;;;4998971;28;20087;-65
2021/06/06 02:51:24;;;;;;;3.25;3.05;;;16.40;82.90;;;;;;4997316;28;20493;-65
2021/06/06 02:53:59;;;;;;;2.88;2.67;;;16.40;82.70;;;;;;4997190;28;20038;-65
2021/06/06 02:56:30;;;;;;;3.00;2.80;;;16.40;82.60;;;;;;4998333;28;20029;-66
2021/06/06 02:59:13;;;;;;;2.53;2.40;;;16.40;82.70;;;;;;4998526;28;20243;-65
2021/06/06 03:01:47;;;;;;;2.70;2.50;;;16.40;83.00;;;;;;4998310;28;20057;-65
2021/06/06 03:04:17;;;;;;;2.83;2.63;;;16.40;82.70;;;;;;5011891;28;20458;-65
2021/06/06 03:06:57;;;;;;;2.60;2.40;;;16.40;82.60;;;;;;4997613;28;20045;-65
2021/06/06 03:09:23;;;;;;;2.40;2.22;;;16.40;82.70;;;;;;4997488;28;20452;-65
2021/06/06 03:11:53;;;;;;;2.25;2.13;;;16.40;82.60;;;;;;4995773;28;20187;-65
2021/06/06 03:14:22;;;;;;;2.30;2.20;;;16.40;82.60;;;;;;4996590;28;20045;-65
2021/06/06 03:17:08;;;;;;;2.55;2.35;;;16.30;82.60;;;;;;4997321;28;20080;-65
2021/06/06 03:19:41;;;;;;;2.78;2.58;;;16.40;83.30;;;;;;5003518;28;20026;-65
2021/06/06 03:22:12;;;;;;;2.80;2.60;;;16.30;82.80;;;;;;4997411;28;20118;-66
2021/06/06 03:24:52;;;;;;;2.63;2.42;;;16.30;83.10;;;;;;4997122;28;20033;-65
2021/06/06 03:27:22;;;;;;;2.40;2.30;;;16.40;83.30;;;;;;4997636;28;20034;-65
2021/06/06 03:30:04;;;;;;;2.88;2.63;;;16.40;83.20;;;;;;4996871;28;20041;-65
2021/06/06 03:32:35;;;;;;;2.75;2.55;;;16.40;83.50;;;;;;4995916;28;20038;-66
2021/06/06 03:35:01;;;;;;;3.00;2.80;;;16.40;83.30;;;;;;4997311;28;20034;-65
2021/06/06 03:37:27;;;;;;;2.72;2.53;;;16.40;83.10;;;;;;4997366;28;20038;-65
2021/06/06 03:39:56;;;;;;;2.65;2.45;;;16.40;83.10;;;;;;4997751;28;20037;-65
2021/06/06 03:42:23;;;;;;;2.58;2.38;;;16.40;83.30;;;;;;4996230;28;20027;-65
2021/06/06 03:44:49;;;;;;;2.58;2.47;;;16.50;83.20;;;;;;4996752;28;20061;-65
2021/06/06 03:47:15;;;;;;;2.67;2.50;;;16.50;83.10;;;;;;4997147;28;20046;-65
2021/06/06 03:49:41;;;;;;;3.28;2.42;;;16.50;82.90;;;;;;5004256;28;20492;-66
2021/06/06 03:52:08;;;;;;;2.58;2.40;;;16.50;82.90;;;;;;4999279;28;20081;-65
2021/06/06 03:54:34;;;;;;;2.83;2.63;;;16.50;83.00;;;;;;5000236;28;21788;-65
2021/06/06 03:57:00;;;;;;;2.88;2.67;;;16.50;82.90;;;;;;5001457;28;20065;-65
2021/06/06 03:59:26;;;;;;;2.58;2.38;;;16.60;82.90;;;;;;4999813;28;20022;-66
2021/06/06 04:01:52;;;;;;;2.83;2.35;;;16.60;82.90;;;;;;5001249;28;20030;-66
2021/06/06 04:04:18;;;;;;;2.50;2.30;;;16.60;82.80;;;;;;4999859;28;20054;-65
2021/06/06 04:06:45;;;;;;;3.13;2.80;;;16.60;82.70;;;;;;5001012;28;20121;-66
2021/06/06 04:09:10;;;;;;;3.40;3.10;;;16.60;82.70;;;;;;5001202;28;20038;-66
2021/06/06 04:11:37;;;;;;;3.30;3.10;;;16.70;82.70;;;;;;4999873;28;20034;-66
2021/06/06 04:14:04;;;;;;;3.97;3.40;;;16.70;82.70;;;;;;5000120;28;20037;-66
2021/06/06 04:16:30;;;;;;;3.70;3.40;;;16.70;82.90;;;;;;5000189;28;20042;-65
2021/06/06 04:18:57;;;;;;;3.67;3.38;;;16.70;82.70;;;;;;5001688;28;20041;-65
2021/06/06 04:21:27;;;;;;;2.90;2.70;;;16.70;82.70;;;;;;4999718;28;20027;-65
2021/06/06 04:23:53;;;;;;;4.40;3.33;;;16.70;82.80;;;;;;5000054;28;20041;-65
2021/06/06 04:26:19;;;;;;;2.95;2.75;;;16.70;82.70;;;;;;5004807;28;20030;-66
2021/06/06 04:28:46;;;;;;;2.90;2.70;;;16.70;82.60;;;;;;5000599;28;20037;-65
2021/06/06 04:31:12;;;;;;;4.10;2.60;;;16.70;82.70;;;;;;5001686;28;20109;-65
2021/06/06 04:33:38;;;;;;;3.30;2.83;;;16.80;82.70;;;;;;4999598;28;20028;-65
2021/06/06 04:36:05;;;;;;;2.83;2.63;;;16.80;82.70;;;;;;5001242;28;20038;-65
2021/06/06 04:38:31;;;;;;;2.53;2.33;;;16.70;83.10;;;;;;5001043;28;20037;-65
2021/06/06 04:41:00;;;;;;;2.17;2.08;;;16.80;82.60;;;;;;4999217;28;20109;-65
2021/06/06 04:43:25;;;;;;;2.50;2.30;;;16.80;82.70;;;;;;4998393;28;20046;-65
2021/06/06 04:45:52;;;;;;;2.45;2.35;;;16.80;82.60;;;;;;5000099;28;20045;-65
2021/06/06 04:48:17;;;;;;;2.40;2.20;;;16.80;82.70;;;;;;5004113;28;20091;-65
2021/06/06 04:50:44;;;;;;;2.08;1.98;;;16.80;82.70;;;;;;4999095;28;20049;-66
2021/06/06 04:53:11;;;;;;;7.30;5.95;;;16.80;82.70;;;;;;4999151;28;20038;-65
2021/06/06 04:55:36;;;;;;;5.28;4.88;;;16.80;82.70;;;;;;4997903;28;20041;-65
2021/06/06 04:58:03;;;;;;;3.70;3.40;;;16.90;82.70;;;;;;4999819;28;20031;-65
2021/06/06 05:00:31;;;;;;;2.53;2.35;;;16.90;82.60;;;;;;4999115;28;20744;-65
2021/06/06 05:02:57;;;;;;;2.53;2.42;;;16.90;82.60;;;;;;5004537;28;20095;-65
2021/06/06 05:05:23;;;;;;;3.88;3.58;;;16.90;82.70;;;;;;4999915;28;20042;-65
2021/06/06 05:07:53;;;;;;;3.15;2.90;;;16.90;82.60;;;;;;5003787;28;20095;-65
2021/06/06 05:10:20;;;;;;;2.83;2.63;;;16.90;82.90;;;;;;5000811;28;20492;-66
2021/06/06 05:12:47;;;;;;;2.50;2.30;;;16.90;82.70;;;;;;5000716;28;20632;-66
2021/06/06 05:15:13;;;;;;;3.03;2.83;;;16.90;82.70;;;;;;4999154;28;20582;-66
2021/06/06 05:17:39;;;;;;;2.72;2.53;;;16.90;82.60;;;;;;5000093;28;20455;-65
2021/06/06 05:20:06;;;;;;;2.33;2.17;;;16.90;82.50;;;;;;4999514;28;20117;-64
2021/06/06 05:22:32;;;;;;;2.38;2.00;;;16.90;82.60;;;;;;4998838;28;20039;-65
2021/06/06 05:24:57;;;;;;;2.38;2.17;;;17.00;82.70;;;;;;4999714;28;20038;-66
2021/06/06 05:27:24;;;;;;;2.78;2.58;;;17.00;82.60;;;;;;4999237;28;20030;-65
2021/06/06 05:29:49;;;;;;;3.25;2.45;;;17.00;82.60;;;;;;4998179;28;20042;-66
2021/06/06 05:32:15;;;;;;;2.30;2.20;;;17.00;82.70;;;;;;4999569;28;20390;-66
2021/06/06 05:34:42;;;;;;;2.13;2.03;;;17.00;82.80;;;;;;4999464;28;20501;-66
2021/06/06 05:37:09;;;;;;;2.85;2.22;;;17.00;82.70;;;;;;4999944;28;20168;-66
2021/06/06 05:39:35;;;;;;;2.60;2.40;;;17.00;82.70;;;;;;5000060;28;20050;-66
2021/06/06 05:42:01;;;;;;;2.47;2.28;;;17.00;82.60;;;;;;4999255;28;20044;-66
2021/06/06 05:44:27;;;;;;;2.78;2.58;;;17.00;82.60;;;;;;4998858;28;20468;-66
2021/06/06 05:46:52;;;;;;;2.47;2.28;;;17.10;82.70;;;;;;5000131;28;20125;-66
2021/06/06 05:49:18;;;;;;;2.60;2.33;;;17.10;82.70;;;;;;4999025;28;20026;-65
2021/06/06 05:51:43;;;;;;;2.50;2.30;;;17.00;82.70;;;;;;4999307;28;20134;-65
2021/06/06 05:54:09;;;;;;;2.40;2.20;;;17.10;82.80;;;;;;5013334;28;20124;-65
2021/06/06 05:56:35;;;;;;;2.53;2.33;;;17.10;82.90;;;;;;4999644;28;20437;-65
2021/06/06 05:59:00;;;;;;;2.63;2.30;;;17.10;83.00;;;;;;4999881;28;20050;-66
2021/06/06 06:01:26;;;;;;;12.10;10.25;;;17.10;82.90;;;;;;4995913;28;20040;-66
2021/06/06 06:03:51;;;;;;;4.32;3.65;;;17.10;82.90;;;;;;4993963;28;20045;-66
2021/06/06 06:06:17;;;;;;;5.22;4.75;;;17.10;82.80;;;;;;4997754;28;20113;-66
2021/06/06 06:08:44;;;;;;;13.63;11.70;;;17.10;82.90;;;;;;4998039;28;20053;-65
2021/06/06 06:11:17;;;;;;;4.20;3.90;;;17.10;83.00;;;;;;4996498;28;20073;-65
2021/06/06 06:13:43;;;;;;;3.30;3.10;;;17.20;82.90;;;;;;4998766;28;20026;-66
2021/06/06 06:16:11;;;;;;;2.38;2.17;;;17.20;82.90;;;;;;4998548;28;20121;-66
2021/06/06 06:18:38;;;;;;;2.17;1.98;;;17.20;82.90;;;;;;4997251;28;20038;-65
2021/06/06 06:21:06;;;;;;;2.55;2.35;;;17.30;82.70;;;;;;5002206;28;20062;-66
2021/06/06 06:23:32;;;;;;;1.80;1.70;;;17.30;82.70;;;;;;4998308;28;20034;-65
2021/06/06 06:25:57;;;;;;;1.83;1.73;;;17.30;82.70;;;;;;4997544;28;20041;-65
2021/06/06 06:28:24;;;;;;;2.20;2.00;;;17.30;82.60;;;;;;4997796;28;20085;-66
2021/06/06 06:30:50;;;;;;;1.85;1.75;;;17.30;82.60;;;;;;4997553;28;20053;-65
2021/06/06 06:33:16;;;;;;;2.20;2.03;;;17.30;82.60;;;;;;4997472;28;20038;-65
2021/06/06 06:35:42;;;;;;;1.85;1.75;;;17.40;82.60;;;;;;4996007;28;20490;-65
2021/06/06 06:38:07;;;;;;;1.95;1.80;;;17.40;82.70;;;;;;4997121;28;20034;-66
2021/06/06 06:40:35;;;;;;;2.40;1.90;;;17.40;82.60;;;;;;4997439;28;20088;-65
2021/06/06 06:43:02;;;;;;;3.05;1.90;;;17.40;82.60;;;;;;4998395;28;20084;-65
2021/06/06 06:45:31;;;;;;;1.90;1.80;;;17.40;82.50;;;;;;4997263;28;20048;-65
2021/06/06 06:47:59;;;;;;;2.78;1.75;;;17.40;82.40;;;;;;4994576;28;20042;-65
2021/06/06 06:50:25;;;;;;;1.90;1.77;;;17.40;82.50;;;;;;4997320;28;20038;-64
2021/06/06 06:52:50;;;;;;;1.90;1.80;;;17.50;82.60;;;;;;4998659;28;20513;-65
2021/06/06 06:55:20;;;;;;;1.70;1.60;;;17.50;82.70;;;;;;4996836;28;20034;-65
2021/06/06 06:57:46;;;;;;;2.08;1.77;;;17.50;82.60;;;;;;4996903;28;20121;-65
2021/06/06 07:00:16;;;;;;;2.40;2.20;;;17.50;82.40;;;;;;4996024;28;20045;-66
2021/06/06 07:02:42;;;;;;;2.42;2.22;;;17.50;82.40;;;;;;4998213;28;20543;-66
2021/06/06 07:05:08;;;;;;;2.42;2.22;;;17.50;83.10;;;;;;4998672;28;20042;-66
2021/06/06 07:07:33;;;;;;;6.47;5.88;;;17.50;82.40;;;;;;4997603;28;20030;-66
2021/06/06 07:10:00;;;;;;;4.45;4.05;;;17.50;82.40;;;;;;4996648;28;20667;-66
2021/06/06 07:12:26;;;;;;;2.63;2.42;;;17.50;82.30;;;;;;4997604;28;20093;-66
2021/06/06 07:14:51;;;;;;;3.28;2.35;;;17.50;82.20;;;;;;4997156;28;20038;-65
2021/06/06 07:17:18;;;;;;;2.13;1.92;;;17.50;82.30;;;;;;4993869;28;20074;-64
2021/06/06 07:19:43;;;;;;;2.92;2.65;;;17.50;82.40;;;;;;4992410;28;20042;-64
2021/06/06 07:22:09;;;;;;;2.55;2.35;;;17.50;82.40;;;;;;4992499;28;20517;-64
2021/06/06 07:24:35;;;;;;;4.72;4.32;;;17.50;82.60;;;;;;4994593;28;20037;-66
2021/06/06 07:27:01;;;;;;;3.85;3.50;;;17.60;82.70;;;;;;4997699;28;20031;-65
2021/06/06 07:29:30;;;;;;;2.13;2.03;;;17.60;82.60;;;;;;4998517;28;20104;-66
2021/06/06 07:31:58;;;;;;;2.40;2.20;;;17.60;82.60;;;;;;4997976;28;20176;-66
2021/06/06 07:34:26;;;;;;;7.72;6.93;;;17.60;82.70;;;;;;4998253;28;20073;-66
2021/06/06 07:36:58;;;;;;;6.55;5.25;;;17.70;82.90;;;;;;5002569;28;20125;-65
2021/06/06 07:39:24;;;;;;;29.27;23.65;;;17.70;83.00;;;;;;5015727;28;20065;-66
2021/06/06 07:41:49;;;;;;;8.63;7.80;;;17.70;82.70;;;;;;5000130;28;20042;-66
2021/06/06 07:44:17;;;;;;;2.90;2.70;;;17.70;82.70;;;;;;4998205;28;20049;-65
2021/06/06 07:46:42;;;;;;;3.28;2.97;;;17.70;82.70;;;;;;4998222;28;20048;-66
2021/06/06 07:49:09;;;;;;;5.97;5.00;;;17.70;82.60;;;;;;4999446;28;20030;-65
2021/06/06 07:51:35;;;;;;;8.73;6.82;;;17.80;82.60;;;;;;5000535;28;20493;-65
2021/06/06 07:54:01;;;;;;;6.50;3.92;;;17.80;82.50;;;;;;4998820;28;20034;-66
2021/06/06 07:56:27;;;;;;;3.22;2.47;;;17.80;82.60;;;;;;4999655;28;20062;-66
2021/06/06 07:58:53;;;;;;;4.75;3.63;;;17.80;82.40;;;;;;4996239;28;20341;-65
2021/06/06 08:01:20;;;;;;;4.60;4.20;;;17.80;82.40;;;;;;5005166;28;20122;-65
2021/06/06 08:03:48;;;;;;;3.72;2.83;;;17.80;82.20;;;;;;4997979;28;20032;-65
2021/06/06 08:06:14;;;;;;;2.25;2.05;;;17.80;82.00;;;;;;4998904;28;20506;-65
2021/06/06 08:08:40;;;;;;;2.20;2.00;;;17.80;81.90;;;;;;5004037;28;20092;-66
2021/06/06 08:11:08;;;;;;;3.15;2.00;;;17.80;81.90;;;;;;4998296;28;20084;-65
2021/06/06 08:13:35;;;;;;;2.25;2.05;;;17.80;82.00;;;;;;5000603;28;20026;-65
2021/06/06 08:16:01;;;;;;;4.05;3.65;;;17.80;82.10;;;;;;5000493;28;20038;-65
2021/06/06 08:18:35;;;;;;;3.67;2.10;;;17.80;82.00;;;;;;5000156;28;20035;-65
2021/06/06 08:21:12;;;;;;;5.25;3.75;;;17.80;82.10;;;;;;5003022;28;20034;-66
2021/06/06 08:23:38;;;;;;;3.40;3.10;;;17.90;82.10;;;;;;4998417;28;20045;-65
2021/06/06 08:26:05;;;;;;;2.50;1.88;;;17.90;82.00;;;;;;4996938;28;20510;-65
2021/06/06 08:28:32;;;;;;;2.70;2.38;;;17.80;82.00;;;;;;5000383;28;20081;-66
2021/06/06 08:31:03;;;;;;;2.42;2.20;;;17.90;82.20;;;;;;4998821;28;20413;-66
2021/06/06 08:33:30;;;;;;;2.28;1.90;;;17.90;82.40;;;;;;5005359;28;20059;-66
2021/06/06 08:35:59;;;;;;;7.97;5.90;;;17.80;82.40;;;;;;4997160;28;20773;-65
2021/06/06 08:38:26;;;;;;;10.35;7.75;;;17.90;82.40;;;;;;5001094;28;20073;-63
2021/06/06 08:40:52;;;;;;;4.93;2.60;;;17.90;82.40;;;;;;4998658;28;20038;-65
2021/06/06 08:43:19;;;;;;;7.95;6.38;;;17.90;82.40;;;;;;4996617;28;20124;-65
2021/06/06 08:45:56;;;;;;;3.30;2.47;;;17.90;82.50;;;;;;4998238;28;20038;-66
2021/06/06 08:48:23;;;;;;;2.85;2.60;;;17.90;82.50;;;;;;4998576;28;20038;-66
2021/06/06 08:50:57;;;;;;;3.50;3.10;;;18.00;82.30;;;;;;4999684;28;20046;-64
2021/06/06 08:53:22;;;;;;;5.75;4.50;;;18.00;82.40;;;;;;4999451;28;20042;-66
2021/06/06 08:56:15;;;;;;;2.00;1.83;;;18.00;82.40;;;;;;4997612;28;20121;-65
2021/06/06 08:58:47;;;;;;;1.70;1.23;;;18.00;82.70;;;;;;4997396;28;20510;-65
2021/06/06 09:01:43;;;;;;;1.58;1.48;;;18.00;82.40;;;;;;4999526;28;20056;-66
2021/06/06 09:04:31;;;;;;;1.45;1.35;;;18.00;82.60;;;;;;5000182;28;20037;-65
2021/06/06 09:07:18;;;;;;;2.08;0.90;;;18.00;82.80;;;;;;4999839;28;20125;-66
2021/06/06 09:09:50;;;;;;;1.67;0.90;;;18.00;82.60;;;;;;4999899;28;20125;-65
2021/06/06 09:12:19;;;;;;;4.10;1.25;;;18.00;82.40;;;;;;4994919;28;20065;-65
2021/06/06 09:14:47;;;;;;;1.45;1.00;;;18.00;82.60;;;;;;4998599;28;20069;-65
2021/06/06 09:17:16;;;;;;;2.40;1.58;;;18.00;82.80;;;;;;4996686;28;20046;-64
2021/06/06 09:19:54;;;;;;;1.73;1.00;;;18.10;83.00;;;;;;4995536;28;20062;-65
2021/06/06 09:22:37;;;;;;;2.75;1.17;;;18.10;83.10;;;;;;4999086;28;20121;-65
2021/06/06 09:25:26;;;;;;;1.23;0.90;;;18.20;83.40;;;;;;4998306;28;20026;-65
2021/06/06 09:28:05;;;;;;;1.65;0.85;;;18.20;83.60;;;;;;4999451;28;20041;-65
2021/06/06 09:30:31;;;;;;;1.17;0.70;;;18.30;83.40;;;;;;4998141;28;20386;-65
2021/06/06 09:33:43;;;;;;;2.65;1.10;;;18.30;82.90;;;;;;4999371;28;20401;-65
2021/06/06 09:36:20;;;;;;;0.88;0.80;;;18.40;82.70;;;;;;5000210;28;20458;-65
2021/06/06 09:38:53;;;;;;;1.25;0.90;;;18.40;82.20;;;;;;4996686;28;20042;-64
2021/06/06 09:41:35;;;;;;;0.70;0.60;;;18.50;82.20;;;;;;4997111;28;20037;-64
2021/06/06 09:44:16;;;;;;;0.85;0.80;;;18.50;82.00;;;;;;4997198;28;20120;-64
2021/06/06 09:47:14;;;;;;;2.63;1.40;;;18.50;82.00;;;;;;4998883;28;20026;-65
2021/06/06 09:49:45;;;;;;;1.15;1.05;;;18.50;82.20;;;;;;4995629;28;20034;-65
2021/06/06 09:52:15;;;;;;;0.80;0.73;;;18.50;82.30;;;;;;5000450;28;20034;-65
2021/06/06 09:54:53;;;;;;;2.80;0.68;;;18.60;82.10;;;;;;4997760;28;20041;-65
2021/06/06 09:57:31;;;;;;;2.58;0.80;;;18.60;82.30;;;;;;4999303;28;20037;-65
2021/06/06 10:00:08;;;;;;;1.05;0.60;;;18.60;82.60;;;;;;4998642;28;20038;-65
2021/06/06 10:02:38;;;;;;;1.17;0.90;;;18.60;82.70;;;;;;4999334;28;20025;-66
2021/06/06 10:05:11;;;;;;;0.60;0.60;;;18.60;82.40;;;;;;4995454;28;20039;-65
2021/06/06 10:07:40;;;;;;;1.23;0.95;;;18.70;81.80;;;;;;4999286;28;20058;-66
2021/06/06 10:10:17;;;;;;;2.28;1.75;;;18.70;81.40;;;;;;4996873;28;20033;-65
2021/06/06 10:12:47;;;;;;;1.20;1.02;;;18.70;82.20;;;;;;4996695;28;20512;-65
2021/06/06 10:15:36;;;;;;;1.67;1.58;;;18.70;82.20;;;;;;4998595;28;20233;-65
2021/06/06 10:18:10;;;;;;;1.80;1.40;;;18.70;82.20;;;;;;4996806;28;20631;-65
2021/06/06 10:20:42;;;;;;;0.80;0.75;;;18.70;82.00;;;;;;4995888;28;20038;-64
2021/06/06 10:23:28;;;;;;;1.70;1.42;;;18.80;82.00;;;;;;4995446;28;20394;-65
2021/06/06 10:26:04;;;;;;;;;;;18.80;81.90;;;;;;4999112;28;20034;-65
2021/06/06 10:28:34;;;;;;;1.40;1.20;;;18.80;81.90;;;;;;4997335;28;19918;-64
2021/06/06 10:31:12;;;;;;;0.85;0.85;;;18.90;81.90;;;;;;4997911;28;20058;-65
2021/06/06 10:33:38;;;;;;;3.92;3.53;;;18.90;81.90;;;;;;4996805;28;20038;-65
2021/06/06 10:36:05;;;;;;;1.50;1.40;;;18.90;81.70;;;;;;4998779;28;20034;-65
2021/06/06 10:38:34;;;;;;;1.50;1.40;;;19.00;81.70;;;;;;4999032;28;20030;-65
2021/06/06 10:41:29;;;;;;;1.30;1.20;;;18.90;81.30;;;;;;4996143;28;20041;-65
2021/06/06 10:44:07;;;;;;;3.03;2.70;;;19.00;81.30;;;;;;4989026;28;20416;-65
2021/06/06 10:46:41;;;;;;;2.15;1.40;;;19.00;81.50;;;;;;4997446;28;20129;-64
2021/06/06 10:49:27;;;;;;;1.92;1.27;;;19.00;81.40;;;;;;4997725;28;20116;-65
2021/06/06 10:51:59;;;;;;;3.00;0.90;;;19.00;81.40;;;;;;4999080;28;20036;-65
2021/06/06 10:54:41;;;;;;;1.15;0.90;;;19.00;81.50;;;;;;4996650;28;20042;-65
2021/06/06 10:57:15;;;;;;;0.80;0.80;;;19.10;81.50;;;;;;4995779;28;20026;-65
2021/06/06 10:59:50;;;;;;;1.52;1.08;;;19.10;81.30;;;;;;4997924;28;20023;-65
2021/06/06 11:02:34;;;;;;;0.93;0.75;;;19.10;81.50;;;;;;4997079;28;20033;-65
2021/06/06 11:05:24;;;;;;;2.15;1.70;;;19.10;81.20;;;;;;4998525;28;20030;-65
2021/06/06 11:07:50;;;;;;;2.35;2.13;;;19.10;81.50;;;;;;4997999;28;20039;-65
2021/06/06 11:10:16;;;;;;;1.75;1.30;;;19.10;81.50;;;;;;4997870;28;20042;-65
2021/06/06 11:12:43;;;;;;;1.15;1.00;;;19.10;81.30;;;;;;4991271;28;20045;-65
2021/06/06 11:15:33;;;;;;;14.55;10.07;;;19.10;81.50;;;;;;4990963;28;20046;-64
2021/06/06 11:18:15;;;;;;;5.22;3.28;;;19.10;81.90;;;;;;4994802;28;20531;-65
2021/06/06 11:21:07;;;;;;;1.98;1.60;;;19.10;82.10;;;;;;4995961;28;20031;-65
2021/06/06 11:23:45;;;;;;;1.25;1.15;;;19.10;81.70;;;;;;4993195;28;20524;-65
2021/06/06 11:26:31;;;;;;;1.00;1.00;;;19.10;81.70;;;;;;4995121;28;20037;-65
2021/06/06 11:29:19;;;;;;;1.55;1.40;;;19.10;81.60;;;;;;4996643;28;20080;-65
2021/06/06 11:32:25;;;;;;;1.42;1.33;;;19.10;82.00;;;;;;4996206;28;20596;-65
2021/06/06 11:35:24;;;;;;;1.90;1.10;;;19.10;81.70;;;;;;4996266;28;20062;-65
2021/06/06 11:38:14;;;;;;;4.78;1.10;;;19.20;81.50;;;;;;4968139;28;20057;-65
2021/06/06 11:40:48;;;;;;;1.75;1.30;;;19.20;81.80;;;;;;4996916;28;20034;-66
2021/06/06 11:43:26;;;;;;;1.10;1.02;;;19.20;81.70;;;;;;5001043;28;20030;-66
2021/06/06 11:45:54;;;;;;;1.90;1.23;;;19.10;81.50;;;;;;4997797;28;20072;-66
2021/06/06 11:48:36;;;;;;;2.03;1.30;;;19.10;81.80;;;;;;4994210;28;20040;-65
2021/06/06 11:51:12;;;;;;;2.33;1.10;;;19.10;82.20;;;;;;4996936;28;20037;-66
2021/06/06 11:53:40;;;;;;;1.33;1.23;;;19.20;82.20;;;;;;4996960;28;20126;-64
2021/06/06 11:56:36;;;;;;;1.40;1.30;;;19.10;82.20;;;;;;4996992;28;20046;-65
2021/06/06 11:59:11;;;;;;;1.65;1.40;;;19.10;82.20;;;;;;4996453;28;20034;-65
2021/06/06 12:01:52;;;;;;;1.43;1.33;;;19.10;82.20;;;;;;4997712;28;20525;-64
2021/06/06 12:04:32;;;;;;;2.22;1.38;;;19.10;82.10;;;;;;5001697;28;20831;-65
2021/06/06 12:07:04;;;;;;;1.65;1.40;;;19.10;82.10;;;;;;4996049;28;20038;-65
2021/06/06 12:09:37;;;;;;;1.50;1.35;;;19.10;82.20;;;;;;4996645;28;20060;-64
2021/06/06 12:12:31;;;;;;;1.50;1.40;;;19.10;82.10;;;;;;5000018;28;20046;-65
2021/06/06 12:15:26;;;;;;;3.30;1.50;;;19.10;82.40;;;;;;4999123;28;20400;-66
2021/06/06 12:18:03;;;;;;;1.90;1.80;;;19.20;81.90;;;;;;5000783;28;20052;-65
2021/06/06 12:20:29;;;;;;;1.98;1.70;;;19.20;82.20;;;;;;4999448;28;20061;-65
2021/06/06 12:23:04;;;;;;;1.77;1.67;;;19.20;81.90;;;;;;5000309;28;20575;-64
2021/06/06 12:25:30;;;;;;;2.05;1.85;;;19.20;81.90;;;;;;5005132;28;20038;-65
2021/06/06 12:28:06;;;;;;;1.77;1.65;;;19.20;82.00;;;;;;5000192;28;20038;-64
2021/06/06 12:30:36;;;;;;;2.10;1.90;;;19.20;82.40;;;;;;4999212;28;20030;-65
2021/06/06 12:33:10;;;;;;;1.67;1.58;;;19.20;82.40;;;;;;5001257;28;20417;-65
2021/06/06 12:35:41;;;;;;;2.35;1.85;;;19.20;82.00;;;;;;5000899;28;20068;-65
2021/06/06 12:38:07;;;;;;;2.17;1.77;;;19.20;82.20;;;;;;4999922;28;20034;-65
2021/06/06 12:40:37;;;;;;;2.17;1.90;;;19.20;82.30;;;;;;5000012;28;20037;-65
2021/06/06 12:43:05;;;;;;;2.00;1.65;;;19.20;82.40;;;;;;5000691;28;20042;-65
2021/06/06 12:45:34;;;;;;;2.47;1.73;;;19.30;82.10;;;;;;4997593;28;20038;-65
2021/06/06 12:48:08;;;;;;;3.22;2.00;;;19.30;81.90;;;;;;5000624;28;20037;-66
2021/06/06 12:50:33;;;;;;;2.03;1.83;;;19.30;82.20;;;;;;5000675;28;20041;-66
2021/06/06 12:53:01;;;;;;;2.80;1.90;;;19.30;81.90;;;;;;4999151;28;20038;-65
2021/06/06 12:55:31;;;;;;;3.47;1.80;;;19.30;81.80;;;;;;5000016;28;20034;-66
2021/06/06 12:57:59;;;;;;;2.35;1.98;;;19.20;81.80;;;;;;5006307;28;20034;-66
2021/06/06 13:00:28;;;;;;;2.63;1.95;;;19.20;81.60;;;;;;4998207;28;20038;-65
2021/06/06 13:02:54;;;;;;;2.30;2.10;;;19.20;81.80;;;;;;5006352;28;20517;-65
2021/06/06 13:05:37;;;;;;;2.38;2.17;;;19.20;82.00;;;;;;4999692;28;21127;-65
2021/06/06 13:08:05;;;;;;;2.55;2.35;;;19.20;82.00;;;;;;4999548;28;20030;-66
2021/06/06 13:10:39;;;;;;;2.65;2.45;;;19.20;81.90;;;;;;4998704;28;20041;-65